Oxygen — FAE2764 — position and weather

sailwx.info

Track history (hours):
 
Tides and Currents Weather Stations Pressure Air Temp Water Temp Dewpoint Dewpoint Depression Visibility Wind Speed Wind Dir Waves Ship Positions

Oxygen

Last reported at 2018-Apr-02 20:02 UTC. Time now 2018-Jun-22 03:10 UTC.
Position N 33°60' W 118°53'.
Warning: this ship's position is months out of date.

Type: Sailing vessel. MMSI: 227460360.

Date/timePositionNaut miles runAvg speedWind from/ knotsBaromVisibWave heightAir tempDewpointWater temp
2018-Apr-02 20:02N 33°60' W 118°53'0 7.2
2018-Apr-02 19:59N 34°00' W 118°54'4 7.6
2018-Apr-02 19:30N 34°01' W 118°58'4 7.3
2018-Apr-02 19:00N 34°02' W 119°02'4 7.0
2018-Apr-02 18:30N 34°03' W 119°06'3 7.0
2018-Apr-02 18:00N 34°05' W 119°10'4 7.0
2018-Apr-02 17:30N 34°07' W 119°14'3 6.9
2018-Apr-02 17:00N 34°09' W 119°16'3 6.5
2018-Apr-02 16:30N 34°12' W 119°17'3 2.9
2018-Apr-02 15:31N 34°15' W 119°16'0 0.0
2018-Apr-02 15:25N 34°15' W 119°16'0 0.0
2018-Apr-02 14:37N 34°15' W 119°16'0 1.0
2018-Apr-02 14:28N 34°15' W 119°16'2 4.7
2018-Apr-02 14:00N 34°14' W 119°18'7 6.3
2018-Apr-02 12:52N 34°16' W 119°27'3 6.5
2018-Apr-02 12:23N 34°16' W 119°31'10 6.3
2018-Apr-02 10:47N 34°17' W 119°43'3 6.1
2018-Apr-02 10:16N 34°18' W 119°46'2 6.3
2018-Apr-02 09:56N 34°18' W 119°49'3 6.0
2018-Apr-02 09:26N 34°18' W 119°53'7 5.5
2018-Apr-02 08:07N 34°19' W 120°01'2 5.7
2018-Apr-02 07:44N 34°19' W 120°04'2 5.5
2018-Apr-02 07:24N 34°19' W 120°06'3 5.6
2018-Apr-02 06:57N 34°20' W 120°09'3 5.8
2018-Apr-02 06:26N 34°20' W 120°13'2 5.6
2018-Apr-02 06:00N 34°20' W 120°16'3 5.7
2018-Apr-02 05:27N 34°21' W 120°19'3 5.8
2018-Apr-02 04:59N 34°22' W 120°22'2 4.9
2018-Apr-02 04:30N 34°22' W 120°25'3 6.3
2018-Apr-02 04:00N 34°22' W 120°29'5 9.0
2018-Apr-02 03:24N 34°24' W 120°35'4 8.6
2018-Apr-02 02:59N 34°25' W 120°40'4 7.3
2018-Apr-02 02:30N 34°27' W 120°43'3 6.6
2018-Apr-02 01:59N 34°30' W 120°44'8 6.0
2018-Apr-02 00:41N 34°38' W 120°47'2 6.5
2018-Apr-02 00:23N 34°40' W 120°47'4 5.5
2018-Apr-01 23:36N 34°44' W 120°48'1 4.6
2018-Apr-01 23:29N 34°45' W 120°48'3 5.0
2018-Apr-01 22:59N 34°47' W 120°49'3 5.6
2018-Apr-01 22:30N 34°50' W 120°50'3 6.2
2018-Apr-01 21:59N 34°53' W 120°51'3 6.8
2018-Apr-01 21:30N 34°56' W 120°53'3 7.0
2018-Apr-01 21:00N 34°59' W 120°54'4 6.7
2018-Apr-01 20:26N 35°03' W 120°55'159 3.4
2018-Mar-30 21:23N 37°20' W 122°34'3 7.1
2018-Mar-30 21:00N 37°23' W 122°35'4 7.1
2018-Mar-30 20:30N 37°26' W 122°36'3 5.8
2018-Mar-30 19:59N 37°29' W 122°37'4 7.3
2018-Mar-30 19:23N 37°34' W 122°37'15 6.0
2018-Mar-30 16:47N 37°48' W 122°30'1 4.3
2018-Mar-30 16:30N 37°49' W 122°29'3 5.5
2018-Mar-30 16:00N 37°49' W 122°26'1 0.0
2018-Mar-28 19:04N 37°49' W 122°25'0 0.6
2018-Mar-28 18:57N 37°49' W 122°25'2 4.1
2018-Mar-28 18:30N 37°50' W 122°26'  
2018-Mar-26 00:44N 37°52' W 122°29'1 2.3
2018-Mar-26 00:28N 37°51' W 122°28'2 4.6
2018-Mar-26 00:00N 37°50' W 122°26'2 3.3
2018-Mar-25 23:30N 37°49' W 122°24'2 4.0
2018-Mar-25 23:00N 37°51' W 122°23'1 1.5
2018-Mar-25 22:30N 37°51' W 122°22'2 3.1
2018-Mar-25 21:57N 37°51' W 122°24'1 3.2
2018-Mar-25 21:30N 37°50' W 122°26'2 4.2
2018-Mar-25 21:00N 37°50' W 122°28'1 1.4
2018-Mar-25 20:30N 37°49' W 122°28'3 0.1
2018-Mar-24 23:08N 37°52' W 122°29'1 2.3
2018-Mar-24 22:53N 37°52' W 122°29'0 1.0
2018-Mar-24 22:26N 37°52' W 122°30'1 1.5
2018-Mar-24 21:57N 37°52' W 122°29'2 3.1
2018-Mar-24 21:25N 37°50' W 122°28'1 3.4
2018-Mar-24 21:00N 37°49' W 122°28'1 1.8
2018-Mar-24 20:30N 37°50' W 122°28'2 3.0
2018-Mar-24 20:00N 37°49' W 122°26'  
Track history (hours):
 
Tides and Currents Weather Stations Pressure Air Temp Water Temp Dewpoint Dewpoint Depression Visibility Wind Speed Wind Dir Waves Ship Positions

Oxygen

Last reported at 2018-Apr-02 20:02 UTC. Time now 2018-Jun-22 03:10 UTC.
Position N 33°60' W 118°53'.
Warning: this ship's position is months out of date.

Type: Sailing vessel. MMSI: 227460360.

Date/timePositionNaut miles runAvg speedWind from/ knotsBaromVisibWave heightAir tempDewpointWater temp
2018-Apr-02 20:02N 33°60' W 118°53'0 7.2
2018-Apr-02 19:59N 34°00' W 118°54'4 7.6
2018-Apr-02 19:30N 34°01' W 118°58'4 7.3
2018-Apr-02 19:00N 34°02' W 119°02'4 7.0
2018-Apr-02 18:30N 34°03' W 119°06'3 7.0
2018-Apr-02 18:00N 34°05' W 119°10'4 7.0
2018-Apr-02 17:30N 34°07' W 119°14'3 6.9
2018-Apr-02 17:00N 34°09' W 119°16'3 6.5
2018-Apr-02 16:30N 34°12' W 119°17'3 2.9
2018-Apr-02 15:31N 34°15' W 119°16'0 0.0
2018-Apr-02 15:25N 34°15' W 119°16'0 0.0
2018-Apr-02 14:37N 34°15' W 119°16'0 1.0
2018-Apr-02 14:28N 34°15' W 119°16'2 4.7
2018-Apr-02 14:00N 34°14' W 119°18'7 6.3
2018-Apr-02 12:52N 34°16' W 119°27'3 6.5
2018-Apr-02 12:23N 34°16' W 119°31'10 6.3
2018-Apr-02 10:47N 34°17' W 119°43'3 6.1
2018-Apr-02 10:16N 34°18' W 119°46'2 6.3
2018-Apr-02 09:56N 34°18' W 119°49'3 6.0
2018-Apr-02 09:26N 34°18' W 119°53'7 5.5
2018-Apr-02 08:07N 34°19' W 120°01'2 5.7
2018-Apr-02 07:44N 34°19' W 120°04'2 5.5
2018-Apr-02 07:24N 34°19' W 120°06'3 5.6
2018-Apr-02 06:57N 34°20' W 120°09'3 5.8
2018-Apr-02 06:26N 34°20' W 120°13'2 5.6
2018-Apr-02 06:00N 34°20' W 120°16'3 5.7
2018-Apr-02 05:27N 34°21' W 120°19'3 5.8
2018-Apr-02 04:59N 34°22' W 120°22'2 4.9
2018-Apr-02 04:30N 34°22' W 120°25'3 6.3
2018-Apr-02 04:00N 34°22' W 120°29'5 9.0
2018-Apr-02 03:24N 34°24' W 120°35'4 8.6
2018-Apr-02 02:59N 34°25' W 120°40'4 7.3
2018-Apr-02 02:30N 34°27' W 120°43'3 6.6
2018-Apr-02 01:59N 34°30' W 120°44'8 6.0
2018-Apr-02 00:41N 34°38' W 120°47'2 6.5
2018-Apr-02 00:23N 34°40' W 120°47'4 5.5
2018-Apr-01 23:36N 34°44' W 120°48'1 4.6
2018-Apr-01 23:29N 34°45' W 120°48'3 5.0
2018-Apr-01 22:59N 34°47' W 120°49'3 5.6
2018-Apr-01 22:30N 34°50' W 120°50'3 6.2
2018-Apr-01 21:59N 34°53' W 120°51'3 6.8
2018-Apr-01 21:30N 34°56' W 120°53'3 7.0
2018-Apr-01 21:00N 34°59' W 120°54'4 6.7
2018-Apr-01 20:26N 35°03' W 120°55'159 3.4
2018-Mar-30 21:23N 37°20' W 122°34'3 7.1
2018-Mar-30 21:00N 37°23' W 122°35'4 7.1
2018-Mar-30 20:30N 37°26' W 122°36'3 5.8
2018-Mar-30 19:59N 37°29' W 122°37'4 7.3
2018-Mar-30 19:23N 37°34' W 122°37'15 6.0
2018-Mar-30 16:47N 37°48' W 122°30'1 4.3
2018-Mar-30 16:30N 37°49' W 122°29'3 5.5
2018-Mar-30 16:00N 37°49' W 122°26'1 0.0
2018-Mar-28 19:04N 37°49' W 122°25'0 0.6
2018-Mar-28 18:57N 37°49' W 122°25'2 4.1
2018-Mar-28 18:30N 37°50' W 122°26'  
2018-Mar-26 00:44N 37°52' W 122°29'1 2.3
2018-Mar-26 00:28N 37°51' W 122°28'2 4.6
2018-Mar-26 00:00N 37°50' W 122°26'2 3.3
2018-Mar-25 23:30N 37°49' W 122°24'2 4.0
2018-Mar-25 23:00N 37°51' W 122°23'1 1.5
2018-Mar-25 22:30N 37°51' W 122°22'2 3.1
2018-Mar-25 21:57N 37°51' W 122°24'1 3.2
2018-Mar-25 21:30N 37°50' W 122°26'2 4.2
2018-Mar-25 21:00N 37°50' W 122°28'1 1.4
2018-Mar-25 20:30N 37°49' W 122°28'3 0.1
2018-Mar-24 23:08N 37°52' W 122°29'1 2.3
2018-Mar-24 22:53N 37°52' W 122°29'0 1.0
2018-Mar-24 22:26N 37°52' W 122°30'1 1.5
2018-Mar-24 21:57N 37°52' W 122°29'2 3.1
2018-Mar-24 21:25N 37°50' W 122°28'1 3.4
2018-Mar-24 21:00N 37°49' W 122°28'1 1.8
2018-Mar-24 20:30N 37°50' W 122°28'2 3.0
2018-Mar-24 20:00N 37°49' W 122°26'  

Dump ship's entire track history